This is the latest recevied weather packets stored in our database for station/object DK6SC-10. If no packets are shown the sender has not sent any weather packets the latest 1 day(s).
| Time | Temp. | Humidity | Pressure | Rain* | Wind** | Luminosity | Snow |
|---|---|---|---|---|---|---|---|
| 1777784547 | 11.67° C | 61% | 979.6 hPa | - | - | - | - |
| 1777783647 | 10° C | 66% | 979.6 hPa | - | - | - | - |
| 1777782747 | 8.89° C | 69% | 979.7 hPa | - | - | - | - |
| 1777781847 | 8.33° C | 69% | 979.8 hPa | - | - | - | - |
| 1777780947 | 8.33° C | 71% | 979.7 hPa | - | - | - | - |
| 1777780047 | 8.33° C | 71% | 979.7 hPa | - | - | - | - |
| 1777779146 | 8.33° C | 70% | 979.8 hPa | - | - | - | - |
| 1777778246 | 8.89° C | 69% | 979.7 hPa | - | - | - | - |
| 1777777346 | 8.89° C | 68% | 979.7 hPa | - | - | - | - |
| 1777776446 | 8.89° C | 68% | 979.7 hPa | - | - | - | - |
| 1777774646 | 9.44° C | 67% | 979.8 hPa | - | - | - | - |
| 1777773746 | 10° C | 65% | 979.8 hPa | - | - | - | - |
| 1777772846 | 10° C | 65% | 979.9 hPa | - | - | - | - |
| 1777771946 | 10° C | 64% | 979.9 hPa | - | - | - | - |
| 1777771046 | 10.56° C | 61% | 979.8 hPa | - | - | - | - |
| 1777770146 | 10.56° C | 60% | 979.7 hPa | - | - | - | - |
| 1777769246 | 10.56° C | 60% | 979.8 hPa | - | - | - | - |
| 1777768346 | 10.56° C | 60% | 979.9 hPa | - | - | - | - |
| 1777767446 | 10.56° C | 59% | 980 hPa | - | - | - | - |
| 1777766546 | 11.67° C | 57% | 980.1 hPa | - | - | - | - |
| 1777765646 | 11.67° C | 56% | 980.1 hPa | - | - | - | - |
| 1777764745 | 11.67° C | 56% | 980.2 hPa | - | - | - | - |
| 1777762945 | 11.67° C | 55% | 980 hPa | - | - | - | - |
| 1777762045 | 11.67° C | 55% | 980.1 hPa | - | - | - | - |
| 1777761145 | 12.22° C | 53% | 980.1 hPa | - | - | - | - |
* Rain since midnight (hover to see other rain measurements)
** Current wind speed in m/s (hover to see current wind gust speed)